Terminal Aerodrome Forecast
Issued by NWS

Home | Current Version | Previous Version | Text Only | Print | Product List | Glossary On
Versions: 1 2 3 4 5 6 7 8 9 10 11 12 13 14 15 16 17 18 19 20 21 22 23 24 25 26
000
FTUS44 KLZK 020500
TAFHRO
TAF
KHRO 020539Z 0206/0306 15003KT P6SM SCT250
      TEMPO 0208/0212 3SM BR
     FM021500 07005KT P6SM SCT250
     FM021900 07007KT P6SM SCT050
     FM030000 10003KT P6SM SKC=

USA.gov is the U.S. government's official web portal to all federal, state and local government web resources and services.